Hibiki — JD3805 — position and weather

sailwx.info

Track history (hours):
 
Tides and Currents Weather Stations Pressure Air Temp Water Temp Dewpoint Dewpoint Depression Visibility Wind Speed Wind Dir Waves Ship Positions

Hibiki

Last reported at 2017-Nov-19 10:10 UTC. Time now 2017-Nov-22 10:50 UTC.
Position N 34°33' E 134°47'.

Length 195 m; draft 6.5 m.

Type: Passenger vessel. MMSI: 431006223.

Date/timePositionNaut miles runAvg speedWind from/ knotsBaromVisibWave heightAir tempDewpointWater temp
2017-Nov-19 10:10N 34°33' E 134°47'422.2
2017-Nov-19 10:00N 34°35' E 134°51'1020.6
2017-Nov-19 09:30N 34°36' E 135°03'1120.9
2017-Nov-19 09:00N 34°34' E 135°15'7 2.3
2017-Nov-19 05:46N 34°31' E 135°24'0 0.0
2017-Nov-19 05:28N 34°31' E 135°24'0 0.0
2017-Nov-19 04:46N 34°31' E 135°24'0 0.0
2017-Nov-19 04:28N 34°31' E 135°24'0 0.0
2017-Nov-19 03:40N 34°31' E 135°24'0 0.0
2017-Nov-19 03:22N 34°31' E 135°24'0 0.0
2017-Nov-19 02:52N 34°31' E 135°24'0 0.0
2017-Nov-19 02:28N 34°31' E 135°24'0 0.0
2017-Nov-19 00:40N 34°31' E 135°24'0 0.0
2017-Nov-19 00:28N 34°31' E 135°24'0 0.0
2017-Nov-18 23:52N 34°31' E 135°24'0 0.0
2017-Nov-18 23:28N 34°31' E 135°24'0 0.0
2017-Nov-18 21:01N 34°31' E 135°24'0 0.0
2017-Nov-18 21:00N 34°31' E 135°24'4 7.8
2017-Nov-18 20:31N 34°33' E 135°20'918.2
2017-Nov-18 20:00N 34°33' E 135°09'917.5
2017-Nov-18 19:30N 34°37' E 134°59'1019.4
2017-Nov-18 19:00N 34°32' E 134°49'5 0.1
2017-Nov-17 10:22N 34°32' E 134°43'822.9
2017-Nov-17 10:01N 34°35' E 134°52'1121.3
2017-Nov-17 09:30N 34°36' E 135°05'1020.8
2017-Nov-17 09:00N 34°35' E 135°17'7 0.6
2017-Nov-16 20:51N 34°31' E 135°24'2 5.4
2017-Nov-16 20:30N 34°33' E 135°22'1019.3
2017-Nov-16 20:00N 34°34' E 135°11'1019.9
2017-Nov-16 19:30N 34°37' E 134°59'15 0.4
2017-Nov-15 10:17N 34°32' E 134°43'622.5
2017-Nov-15 10:00N 34°34' E 134°50'1122.2
2017-Nov-15 09:30N 34°37' E 135°03'1121.3
2017-Nov-15 09:01N 34°33' E 135°15'7 0.6
2017-Nov-14 20:53N 34°31' E 135°24'2 6.3
2017-Nov-14 20:30N 34°33' E 135°22'1020.4
2017-Nov-14 20:00N 34°34' E 135°09'918.8
2017-Nov-14 19:30N 34°37' E 134°58'1121.6
2017-Nov-14 19:00N 34°32' E 134°46'31 0.7
2017-Nov-12 20:55N 34°31' E 135°24'3 6.6
2017-Nov-12 20:30N 34°33' E 135°21'1121.1
2017-Nov-12 20:00N 34°34' E 135°09'1018.9
2017-Nov-12 19:30N 34°36' E 134°57'5 0.2
2017-Nov-11 09:57N 34°34' E 134°51'920.7
2017-Nov-11 09:30N 34°37' E 135°02'1121.7
2017-Nov-11 09:00N 34°34' E 135°15'816.1
2017-Nov-11 08:30N 34°31' E 135°24'0 0.0
2017-Nov-10 22:12N 34°31' E 135°24'0 0.0
2017-Nov-10 22:00N 34°31' E 135°24'0 0.0
2017-Nov-10 21:00N 34°31' E 135°24'3 5.2
2017-Nov-10 20:30N 34°33' E 135°22'1019.2
2017-Nov-10 20:00N 34°34' E 135°10'919.0
2017-Nov-10 19:31N 34°37' E 134°59'11 0.3
2017-Nov-09 10:18N 34°33' E 134°47'  
Track history (hours):
 
Tides and Currents Weather Stations Pressure Air Temp Water Temp Dewpoint Dewpoint Depression Visibility Wind Speed Wind Dir Waves Ship Positions

Hibiki

Last reported at 2017-Nov-19 10:10 UTC. Time now 2017-Nov-22 10:50 UTC.
Position N 34°33' E 134°47'.

Length 195 m; draft 6.5 m.

Type: Passenger vessel. MMSI: 431006223.

Date/timePositionNaut miles runAvg speedWind from/ knotsBaromVisibWave heightAir tempDewpointWater temp
2017-Nov-19 10:10N 34°33' E 134°47'422.2
2017-Nov-19 10:00N 34°35' E 134°51'1020.6
2017-Nov-19 09:30N 34°36' E 135°03'1120.9
2017-Nov-19 09:00N 34°34' E 135°15'7 2.3
2017-Nov-19 05:46N 34°31' E 135°24'0 0.0
2017-Nov-19 05:28N 34°31' E 135°24'0 0.0
2017-Nov-19 04:46N 34°31' E 135°24'0 0.0
2017-Nov-19 04:28N 34°31' E 135°24'0 0.0
2017-Nov-19 03:40N 34°31' E 135°24'0 0.0
2017-Nov-19 03:22N 34°31' E 135°24'0 0.0
2017-Nov-19 02:52N 34°31' E 135°24'0 0.0
2017-Nov-19 02:28N 34°31' E 135°24'0 0.0
2017-Nov-19 00:40N 34°31' E 135°24'0 0.0
2017-Nov-19 00:28N 34°31' E 135°24'0 0.0
2017-Nov-18 23:52N 34°31' E 135°24'0 0.0
2017-Nov-18 23:28N 34°31' E 135°24'0 0.0
2017-Nov-18 21:01N 34°31' E 135°24'0 0.0
2017-Nov-18 21:00N 34°31' E 135°24'4 7.8
2017-Nov-18 20:31N 34°33' E 135°20'918.2
2017-Nov-18 20:00N 34°33' E 135°09'917.5
2017-Nov-18 19:30N 34°37' E 134°59'1019.4
2017-Nov-18 19:00N 34°32' E 134°49'5 0.1
2017-Nov-17 10:22N 34°32' E 134°43'822.9
2017-Nov-17 10:01N 34°35' E 134°52'1121.3
2017-Nov-17 09:30N 34°36' E 135°05'1020.8
2017-Nov-17 09:00N 34°35' E 135°17'7 0.6
2017-Nov-16 20:51N 34°31' E 135°24'2 5.4
2017-Nov-16 20:30N 34°33' E 135°22'1019.3
2017-Nov-16 20:00N 34°34' E 135°11'1019.9
2017-Nov-16 19:30N 34°37' E 134°59'15 0.4
2017-Nov-15 10:17N 34°32' E 134°43'622.5
2017-Nov-15 10:00N 34°34' E 134°50'1122.2
2017-Nov-15 09:30N 34°37' E 135°03'1121.3
2017-Nov-15 09:01N 34°33' E 135°15'7 0.6
2017-Nov-14 20:53N 34°31' E 135°24'2 6.3
2017-Nov-14 20:30N 34°33' E 135°22'1020.4
2017-Nov-14 20:00N 34°34' E 135°09'918.8
2017-Nov-14 19:30N 34°37' E 134°58'1121.6
2017-Nov-14 19:00N 34°32' E 134°46'31 0.7
2017-Nov-12 20:55N 34°31' E 135°24'3 6.6
2017-Nov-12 20:30N 34°33' E 135°21'1121.1
2017-Nov-12 20:00N 34°34' E 135°09'1018.9
2017-Nov-12 19:30N 34°36' E 134°57'5 0.2
2017-Nov-11 09:57N 34°34' E 134°51'920.7
2017-Nov-11 09:30N 34°37' E 135°02'1121.7
2017-Nov-11 09:00N 34°34' E 135°15'816.1
2017-Nov-11 08:30N 34°31' E 135°24'0 0.0
2017-Nov-10 22:12N 34°31' E 135°24'0 0.0
2017-Nov-10 22:00N 34°31' E 135°24'0 0.0
2017-Nov-10 21:00N 34°31' E 135°24'3 5.2
2017-Nov-10 20:30N 34°33' E 135°22'1019.2
2017-Nov-10 20:00N 34°34' E 135°10'919.0
2017-Nov-10 19:31N 34°37' E 134°59'11 0.3
2017-Nov-09 10:18N 34°33' E 134°47'  

Dump ship's entire track history